Time;durP1;ratioP1;P1;durP2;ratioP2;P2;SDS_P1;SDS_P2;PMS_P1;PMS_P2;Temp;Humidity;BMP_temperature;BMP_pressure;BME280_temperature;BME280_humidity;BME280_pressure;Samples;Min_cycle;Max_cycle;Signal;HPM_P1;HPM_P2
2023/10/07 00:01:08;;;;;;;4.90;3.00;;;;;;;17.18;72.39;100327.56;179976;1262;46064;-79
2023/10/07 00:05:16;;;;;;;3.90;3.50;;;;;;;17.23;72.46;100320.95;179831;1261;45918;-79
2023/10/07 00:09:22;;;;;;;5.60;2.90;;;;;;;17.32;72.33;100317.67;179943;1261;43851;-78
2023/10/07 00:13:30;;;;;;;6.20;2.80;;;;;;;17.43;72.54;100318.77;178377;1261;58365;-78
2023/10/07 00:17:39;;;;;;;5.40;3.10;;;;;;;17.49;72.54;100314.45;178575;1261;44206;-79
2023/10/07 00:21:55;;;;;;;4.20;2.30;;;;;;;17.54;72.53;100315.56;179127;1261;46153;-79
2023/10/07 00:25:58;;;;;;;6.10;3.10;;;;;;;17.64;71.76;100316.48;178829;1261;44750;-79
2023/10/07 00:30:12;;;;;;;5.30;3.60;;;;;;;17.71;71.86;100318.72;180334;1261;45939;-79
2023/10/07 00:34:19;;;;;;;5.80;1.80;;;;;;;17.74;71.71;100314.77;179747;1262;58755;-79
2023/10/07 00:38:37;;;;;;;6.20;3.10;;;;;;;17.74;72.20;100309.05;180535;1261;44069;-78
2023/10/07 00:42:44;;;;;;;2.40;2.00;;;;;;;17.74;72.48;100296.95;179961;1265;44374;-78
2023/10/07 00:46:55;;;;;;;7.70;2.70;;;;;;;17.75;72.96;100293.18;179715;1262;44806;-78
2023/10/07 00:51:00;;;;;;;5.00;2.30;;;;;;;17.75;73.22;100285.61;179512;1261;46115;-79
2023/10/07 00:59:07;;;;;;;5.60;2.60;;;;;;;17.77;73.82;100257.33;179637;1261;45987;-78
2023/10/07 01:07:19;;;;;;;5.40;2.20;;;;;;;17.75;74.47;100261.40;179490;1261;44581;-78
2023/10/07 01:11:24;;;;;;;10.70;3.60;;;;;;;17.79;74.64;100256.55;180168;1261;43653;-79
2023/10/07 01:15:29;;;;;;;3.20;2.30;;;;;;;17.81;74.83;100251.66;178661;1262;58303;-79
2023/10/07 01:19:36;;;;;;;6.60;3.10;;;;;;;17.83;75.05;100247.62;179668;1261;46189;-79
2023/10/07 01:23:40;;;;;;;5.50;2.60;;;;;;;17.85;75.29;100242.93;179510;1261;46205;-78
2023/10/07 01:27:50;;;;;;;5.70;3.00;;;;;;;17.86;75.42;100240.48;179070;1262;46016;-79
2023/10/07 01:31:59;;;;;;;3.60;2.30;;;;;;;17.88;75.73;100237.01;178892;1262;46051;-79
2023/10/07 01:36:23;;;;;;;6.20;3.30;;;;;;;17.86;75.98;100235.26;178442;1261;58125;-79
2023/10/07 01:40:31;;;;;;;4.90;2.50;;;;;;;17.84;75.86;100234.42;178381;1262;46198;-79
2023/10/07 01:44:39;;;;;;;4.50;2.70;;;;;;;17.85;76.23;100238.13;180224;1261;44265;-79
2023/10/07 01:48:55;;;;;;;5.30;2.80;;;;;;;17.81;76.56;100235.95;178553;1262;45893;-79
2023/10/07 01:52:58;;;;;;;4.90;3.30;;;;;;;17.84;76.94;100227.38;179388;1261;44073;-79
2023/10/07 01:57:05;;;;;;;4.40;2.40;;;;;;;17.88;76.55;100221.82;179540;1262;58113;-79
2023/10/07 02:01:08;;;;;;;4.90;3.00;;;;;;;17.88;76.29;100216.84;179344;1261;45947;-79
2023/10/07 02:05:12;;;;;;;4.20;2.10;;;;;;;17.91;76.27;100207.64;179116;1262;44745;-78
2023/10/07 02:09:23;;;;;;;7.10;2.80;;;;;;;17.94;75.89;100198.80;179207;1261;44110;-79
2023/10/07 02:13:29;;;;;;;6.10;2.60;;;;;;;17.97;75.94;100193.27;177960;1262;45931;-79
2023/10/07 02:17:33;;;;;;;4.80;3.10;;;;;;;18.02;75.70;100184.11;178541;1262;57931;-79
2023/10/07 02:21:36;;;;;;;9.50;2.70;;;;;;;18.07;75.74;100175.65;178646;1265;46180;-77
2023/10/07 02:25:40;;;;;;;4.40;2.20;;;;;;;18.10;75.33;100178.76;178730;1262;46116;-77
2023/10/07 02:29:48;;;;;;;3.10;2.10;;;;;;;18.15;75.36;100172.88;179854;1264;44524;-77
2023/10/07 02:34:08;;;;;;;5.30;2.00;;;;;;;18.18;75.47;100174.44;179386;1262;46001;-78
2023/10/07 02:38:12;;;;;;;2.50;2.30;;;;;;;18.20;75.60;100167.60;179775;1262;59649;-77
2023/10/07 02:42:31;;;;;;;4.30;2.40;;;;;;;18.18;75.70;100161.22;179692;1261;45030;-77
2023/10/07 02:46:34;;;;;;;6.40;2.60;;;;;;;18.15;75.76;100162.82;179922;1261;44715;-77
2023/10/07 02:50:42;;;;;;;5.70;3.50;;;;;;;18.11;75.79;100157.08;178644;1262;45968;-78
2023/10/07 02:54:52;;;;;;;5.90;3.10;;;;;;;18.10;76.21;100157.94;179415;1261;44216;-78
2023/10/07 02:59:03;;;;;;;3.30;2.10;;;;;;;18.06;76.06;100166.22;179241;1261;59853;-77
2023/10/07 03:03:19;;;;;;;4.90;3.00;;;;;;;18.04;76.37;100167.62;178416;1262;46119;-78
2023/10/07 03:07:23;;;;;;;5.60;2.60;;;;;;;17.96;76.73;100172.59;178990;1261;43996;-77
2023/10/07 03:11:40;;;;;;;6.40;2.80;;;;;;;17.94;76.99;100177.52;179158;1264;46545;-77
2023/10/07 03:15:46;;;;;;;8.00;2.80;;;;;;;17.91;77.09;100175.85;178909;1262;46043;-78
2023/10/07 03:19:56;;;;;;;6.50;2.80;;;;;;;17.85;77.41;100173.69;178373;1261;58748;-77
2023/10/07 03:23:59;;;;;;;6.90;3.60;;;;;;;17.83;77.37;100165.34;178469;1262;46087;-78
2023/10/07 03:28:16;;;;;;;4.50;2.80;;;;;;;17.82;77.68;100162.75;178736;1262;46185;-78
2023/10/07 03:32:20;;;;;;;10.90;2.80;;;;;;;17.77;77.70;100158.96;179352;1262;43889;-77
2023/10/07 03:40:53;;;;;;;5.80;3.20;;;;;;;17.72;78.00;100165.32;178566;1261;57041;-77
2023/10/07 03:44:56;;;;;;;7.30;2.80;;;;;;;17.73;78.35;100163.02;179135;1261;45889;-77
2023/10/07 03:49:01;;;;;;;3.50;2.10;;;;;;;17.68;78.44;100159.42;178189;1262;46036;-77
2023/10/07 03:53:05;;;;;;;10.50;3.40;;;;;;;17.67;78.66;100168.91;179031;1261;46128;-77
2023/10/07 03:57:09;;;;;;;7.20;3.00;;;;;;;17.63;78.92;100165.09;179069;1261;43545;-77
2023/10/07 04:01:16;;;;;;;7.00;3.00;;;;;;;17.65;78.93;100161.61;179826;1262;58241;-78
2023/10/07 04:05:31;;;;;;;2.80;2.30;;;;;;;17.67;79.35;100157.84;178985;1262;46122;-78
2023/10/07 04:09:35;;;;;;;7.50;3.40;;;;;;;17.67;79.60;100158.15;180524;1261;44372;-78
2023/10/07 04:13:39;;;;;;;4.30;2.20;;;;;;;17.63;80.63;100156.08;180098;1261;46017;-78
2023/10/07 04:17:44;;;;;;;6.20;2.70;;;;;;;17.65;82.38;100155.54;179351;1262;46098;-77
2023/10/07 04:21:50;;;;;;;5.90;3.10;;;;;;;17.70;84.03;100147.27;179407;1261;57950;-77
2023/10/07 04:26:04;;;;;;;7.30;3.00;;;;;;;17.74;84.37;100135.71;178518;1262;46701;-78
2023/10/07 04:30:10;;;;;;;5.00;2.40;;;;;;;17.78;84.00;100138.96;178770;1261;44769;-78
2023/10/07 04:34:24;;;;;;;4.30;2.20;;;;;;;17.74;83.82;100138.85;178668;1262;45375;-78
2023/10/07 04:42:37;;;;;;;4.90;2.80;;;;;;;17.81;82.86;100146.38;178959;1261;61586;-78
2023/10/07 04:46:45;;;;;;;5.20;3.30;;;;;;;17.80;83.00;100153.10;179456;1261;44015;-78
2023/10/07 04:51:03;;;;;;;4.60;3.10;;;;;;;17.78;83.02;100160.17;180008;1262;45879;-78
2023/10/07 04:55:13;;;;;;;6.40;2.60;;;;;;;17.76;82.88;100161.98;179215;1262;46134;-78
2023/10/07 04:59:17;;;;;;;4.80;3.00;;;;;;;17.79;82.61;100166.96;178418;1262;46059;-78
2023/10/07 05:03:20;;;;;;;3.60;2.50;;;;;;;17.81;82.36;100164.66;178234;1262;58283;-79
2023/10/07 05:07:26;;;;;;;5.80;3.70;;;;;;;17.75;81.87;100163.02;178605;1262;45994;-78
2023/10/07 05:11:30;;;;;;;5.50;3.20;;;;;;;17.76;81.62;100162.10;179624;1262;44678;-78
2023/10/07 05:15:40;;;;;;;6.00;2.80;;;;;;;17.76;81.14;100146.56;179441;1261;46123;-78
2023/10/07 05:19:43;;;;;;;5.20;2.30;;;;;;;17.81;80.99;100140.42;179127;1262;46108;-78
2023/10/07 05:23:47;;;;;;;4.20;2.90;;;;;;;17.86;81.03;100152.46;179274;1262;57881;-78
2023/10/07 05:27:53;;;;;;;3.70;2.80;;;;;;;17.84;81.03;100147.30;178206;1262;46120;-78
2023/10/07 05:31:57;;;;;;;6.70;2.60;;;;;;;17.80;81.45;100146.91;179669;1262;45914;-78
2023/10/07 05:36:13;;;;;;;7.00;2.60;;;;;;;17.80;81.69;100139.98;179658;1262;45054;-79
2023/10/07 05:40:21;;;;;;;4.40;2.70;;;;;;;17.81;81.77;100135.07;178702;1262;45954;-78
2023/10/07 05:44:24;;;;;;;3.80;2.60;;;;;;;17.82;82.18;100127.73;178756;1262;58086;-77
2023/10/07 05:48:27;;;;;;;6.10;3.40;;;;;;;17.85;82.97;100130.42;179015;1265;46014;-78
2023/10/07 05:52:32;;;;;;;6.20;3.00;;;;;;;17.89;83.03;100136.92;180422;1262;43445;-78
2023/10/07 05:56:35;;;;;;;6.10;2.80;;;;;;;17.92;82.87;100138.27;179931;1262;46020;-78
2023/10/07 06:00:38;;;;;;;8.70;3.70;;;;;;;17.91;82.54;100128.86;180147;1262;44481;-78
2023/10/07 06:04:43;;;;;;;9.00;3.20;;;;;;;17.92;82.54;100137.40;179780;1261;57937;-78
2023/10/07 06:08:47;;;;;;;4.40;2.70;;;;;;;17.92;83.27;100137.54;179143;1262;46072;-78
2023/10/07 06:12:54;;;;;;;9.10;3.90;;;;;;;17.90;83.29;100143.58;180232;1262;44128;-78
2023/10/07 06:16:57;;;;;;;4.10;2.40;;;;;;;17.92;83.36;100138.89;179635;1262;45839;-78
2023/10/07 06:25:33;;;;;;;3.50;2.40;;;;;;;18.09;83.52;100157.20;178805;1262;59553;-78
2023/10/07 06:29:38;;;;;;;5.40;3.00;;;;;;;18.20;82.84;100156.86;179852;1262;44095;-78
2023/10/07 06:33:43;;;;;;;4.60;2.60;;;;;;;18.27;82.24;100166.06;178898;1266;45992;-78
2023/10/07 06:37:47;;;;;;;6.90;2.40;;;;;;;18.33;81.70;100173.94;178562;1262;46144;-78
2023/10/07 06:41:50;;;;;;;8.20;3.10;;;;;;;18.42;82.04;100182.95;178553;1266;45554;-78
2023/10/07 06:45:55;;;;;;;5.80;3.10;;;;;;;18.50;81.25;100169.08;178711;1262;57932;-78
2023/10/07 06:49:58;;;;;;;4.60;2.80;;;;;;;18.61;80.85;100169.63;178604;1262;46001;-78
2023/10/07 06:54:04;;;;;;;7.70;3.20;;;;;;;18.73;80.77;100166.19;179881;1262;45154;-78
2023/10/07 06:58:07;;;;;;;8.20;4.00;;;;;;;18.91;79.72;100167.88;179096;1261;46033;-78
2023/10/07 07:02:18;;;;;;;5.60;2.20;;;;;;;19.05;79.20;100162.91;179124;1266;46208;-78
2023/10/07 07:06:33;;;;;;;5.00;2.90;;;;;;;19.16;78.32;100158.86;180716;1262;58051;-78
2023/10/07 07:10:37;;;;;;;6.20;3.20;;;;;;;19.20;78.04;100151.70;179661;1262;43809;-78
2023/10/07 07:14:46;;;;;;;166.40;29.00;;;;;;;19.32;78.87;100147.09;180125;1262;46124;-78
2023/10/07 07:18:50;;;;;;;3.90;2.30;;;;;;;19.57;79.06;100141.30;179547;1262;45998;-78
2023/10/07 07:22:54;;;;;;;6.70;3.70;;;;;;;19.81;77.90;100141.08;180128;1262;45984;-79
2023/10/07 07:26:57;;;;;;;9.40;2.00;;;;;;;19.87;77.00;100141.07;179493;1262;58101;-78
2023/10/07 07:31:00;;;;;;;4.60;1.80;;;;;;;19.91;76.98;100139.88;179638;1262;45539;-78
2023/10/07 07:35:04;;;;;;;8.50;2.50;;;;;;;20.02;76.68;100135.55;178807;1262;46007;-78
2023/10/07 07:39:17;;;;;;;5.10;2.50;;;;;;;20.07;77.06;100137.34;179749;1261;171618;-78
2023/10/07 07:43:25;;;;;;;5.50;2.90;;;;;;;20.13;76.91;100129.65;180002;1262;44113;-78
2023/10/07 07:47:31;;;;;;;4.10;2.40;;;;;;;20.30;77.49;100139.75;179712;1262;58627;-79
2023/10/07 07:51:43;;;;;;;7.10;2.40;;;;;;;20.50;77.36;100139.83;179085;1262;46092;-78
2023/10/07 07:55:47;;;;;;;3.50;2.20;;;;;;;20.68;77.02;100141.10;179039;1262;46130;-78
2023/10/07 07:59:50;;;;;;;6.90;3.00;;;;;;;20.87;76.55;100144.91;179222;1262;44738;-78
2023/10/07 08:03:55;;;;;;;8.00;3.10;;;;;;;21.09;76.01;100146.05;179310;1266;44614;-78
2023/10/07 08:07:59;;;;;;;4.80;2.50;;;;;;;21.16;75.42;100151.52;179067;1262;57907;-79
2023/10/07 08:12:05;;;;;;;6.50;1.80;;;;;;;21.19;75.71;100152.14;179403;1262;44994;-78
2023/10/07 08:16:15;;;;;;;4.50;2.80;;;;;;;21.20;75.58;100146.01;179624;1262;46007;-78
2023/10/07 08:20:28;;;;;;;3.40;1.90;;;;;;;21.24;75.96;100147.52;180251;1262;45748;-79
2023/10/07 08:24:39;;;;;;;4.10;1.80;;;;;;;21.31;76.33;100153.77;179825;1262;45028;-78
2023/10/07 08:28:58;;;;;;;6.30;2.50;;;;;;;21.31;76.63;100145.10;179940;1262;59549;-79
2023/10/07 08:33:06;;;;;;;7.30;2.50;;;;;;;21.31;76.60;100139.23;180692;1262;43786;-79
2023/10/07 08:37:15;;;;;;;6.50;3.40;;;;;;;21.29;76.57;100141.09;180377;1265;43780;-79
2023/10/07 08:41:26;;;;;;;6.90;1.80;;;;;;;21.26;76.40;100147.49;179780;1262;46469;-79
2023/10/07 08:45:33;;;;;;;11.10;3.00;;;;;;;21.15;76.44;100137.90;180545;1262;43335;-79
2023/10/07 08:49:38;;;;;;;9.30;2.30;;;;;;;21.10;77.22;100143.75;180770;1261;58527;-79
2023/10/07 08:53:43;;;;;;;3.80;3.10;;;;;;;21.03;77.20;100150.42;180098;1266;46002;-79
2023/10/07 08:57:49;;;;;;;8.80;3.10;;;;;;;21.06;78.05;100146.46;179506;1262;46005;-79
2023/10/07 09:01:57;;;;;;;5.00;2.30;;;;;;;20.89;77.75;100146.27;179892;1262;45160;-79
2023/10/07 09:06:06;;;;;;;10.80;3.70;;;;;;;20.91;78.24;100133.77;179514;1262;44552;-79
2023/10/07 09:10:17;;;;;;;9.10;3.30;;;;;;;21.05;78.11;100131.36;179634;1262;58199;-79
2023/10/07 09:14:26;;;;;;;14.30;3.80;;;;;;;21.25;77.55;100127.64;180007;1262;46100;-78
2023/10/07 09:18:37;;;;;;;5.00;2.70;;;;;;;21.27;78.29;100125.02;179970;1262;44418;-79
2023/10/07 09:22:45;;;;;;;6.40;2.90;;;;;;;21.40;76.85;100129.80;179947;1267;45988;-79
2023/10/07 09:26:57;;;;;;;6.40;2.40;;;;;;;21.51;76.84;100125.80;180288;1262;43648;-78
2023/10/07 09:31:06;;;;;;;5.20;2.80;;;;;;;21.62;76.61;100142.96;179627;1262;58022;-79
2023/10/07 09:35:19;;;;;;;8.20;2.00;;;;;;;21.69;75.94;100143.75;179899;1262;45914;-79
2023/10/07 09:44:02;;;;;;;8.40;2.80;;;;;;;21.07;76.70;100156.99;180238;1262;44309;-78
2023/10/07 09:48:08;;;;;;;8.30;3.60;;;;;;;20.97;77.12;100167.45;179743;1265;43479;-78
2023/10/07 09:52:17;;;;;;;6.50;2.50;;;;;;;20.85;77.20;100148.52;180109;1262;58077;-79
2023/10/07 09:56:32;;;;;;;7.40;2.20;;;;;;;20.49;78.62;100159.30;179406;1264;46017;-79
2023/10/07 10:01:02;;;;;;;4.60;2.80;;;;;;;20.35;79.74;100151.42;180278;1263;43873;-79
2023/10/07 10:05:25;;;;;;;7.20;2.10;;;;;;;20.57;80.48;100156.23;180687;1266;44401;-79
2023/10/07 10:09:42;;;;;;;5.30;2.50;;;;;;;20.78;79.76;100159.69;180178;1266;43807;-78
2023/10/07 10:13:52;;;;;;;6.20;2.30;;;;;;;20.56;79.55;100167.48;179683;1262;59607;-77
2023/10/07 10:17:56;;;;;;;9.00;3.80;;;;;;;20.55;80.11;100173.23;179689;1262;45910;-77
2023/10/07 10:22:13;;;;;;;5.80;2.30;;;;;;;20.85;80.55;100182.45;179364;1262;45997;-79
2023/10/07 10:26:21;;;;;;;5.70;2.70;;;;;;;20.99;79.39;100172.63;179892;1262;44167;-79
2023/10/07 10:30:25;;;;;;;12.20;2.90;;;;;;;20.89;80.35;100170.38;179042;1264;46106;-78
2023/10/07 10:34:29;;;;;;;11.30;2.70;;;;;;;20.55;80.89;100163.85;180087;1262;59094;-78
2023/10/07 10:38:40;;;;;;;10.20;2.50;;;;;;;20.44;83.22;100173.90;179732;1262;44758;-78
2023/10/07 10:42:52;;;;;;;14.00;3.30;;;;;;;20.47;83.53;100167.20;180459;1262;46075;-77
2023/10/07 10:46:56;;;;;;;6.70;3.20;;;;;;;20.47;84.45;100175.09;179619;1264;44003;-78
2023/10/07 10:51:05;;;;;;;6.50;2.50;;;;;;;20.60;84.00;100160.04;180130;1266;45970;-79
2023/10/07 10:55:11;;;;;;;12.00;3.20;;;;;;;20.72;83.88;100147.24;179310;1267;58680;-78
2023/10/07 10:59:18;;;;;;;3.50;2.50;;;;;;;20.81;83.01;100145.83;179682;1264;44939;-78
2023/10/07 11:03:21;;;;;;;5.10;2.60;;;;;;;20.78;83.41;100147.47;179155;1261;44838;-79
2023/10/07 11:07:30;;;;;;;6.90;2.60;;;;;;;20.57;84.21;100153.48;180054;1266;44083;-80
2023/10/07 11:11:37;;;;;;;3.20;2.10;;;;;;;20.58;84.82;100156.27;179932;1264;43920;-77
2023/10/07 11:15:41;;;;;;;3.30;1.90;;;;;;;20.58;85.94;100159.02;179271;1262;58040;-79
2023/10/07 11:19:48;;;;;;;12.10;3.10;;;;;;;20.50;85.86;100155.09;179472;1262;46073;-79
2023/10/07 11:23:53;;;;;;;5.50;2.20;;;;;;;20.43;85.99;100132.76;179655;1262;45712;-78
2023/10/07 11:27:58;;;;;;;5.80;2.50;;;;;;;20.43;86.89;100129.38;180035;1264;44759;-81
2023/10/07 11:32:07;;;;;;;4.10;2.20;;;;;;;20.53;87.51;100137.65;180699;1264;44614;-79
2023/10/07 11:36:11;;;;;;;6.70;2.60;;;;;;;20.72;85.84;100138.17;180092;1264;58480;-78
2023/10/07 11:40:19;;;;;;;7.40;3.00;;;;;;;20.65;85.46;100126.57;179970;1266;44832;-79
2023/10/07 11:44:23;;;;;;;3.20;1.80;;;;;;;20.69;85.23;100114.16;180127;1264;43764;-78
2023/10/07 11:48:27;;;;;;;5.80;2.60;;;;;;;20.59;85.38;100110.55;180228;1263;43730;-78
2023/10/07 11:52:32;;;;;;;6.80;2.50;;;;;;;20.51;86.05;100112.45;180203;1264;43744;-78
2023/10/07 11:56:35;;;;;;;5.50;2.90;;;;;;;20.50;86.25;100109.20;180563;1264;59506;-78
2023/10/07 12:00:42;;;;;;;5.20;3.10;;;;;;;20.46;86.71;100099.08;180452;1263;44180;-78
2023/10/07 12:04:48;;;;;;;6.70;4.10;;;;;;;20.60;86.41;100103.99;180722;1262;43424;-79
2023/10/07 12:08:52;;;;;;;2.40;2.00;;;;;;;20.73;85.45;100100.89;180542;1263;44264;-78
2023/10/07 12:12:58;;;;;;;2.70;2.40;;;;;;;20.80;85.76;100078.36;180777;1264;43979;-79
2023/10/07 12:17:03;;;;;;;4.30;2.50;;;;;;;20.79;84.96;100079.43;180530;1264;59307;-79
2023/10/07 12:21:12;;;;;;;4.60;2.80;;;;;;;20.65;85.39;100088.48;180350;1265;44719;-78
2023/10/07 12:25:16;;;;;;;3.00;1.60;;;;;;;20.53;86.48;100090.64;180657;1262;44366;-82
2023/10/07 12:29:19;;;;;;;2.50;1.80;;;;;;;20.38;87.64;100091.04;179271;1264;45993;-80
2023/10/07 12:33:23;;;;;;;41.70;8.70;;;;;;;20.15;88.54;100088.64;180551;1264;44276;-80
2023/10/07 12:37:40;;;;;;;3.70;2.80;;;;;;;20.13;89.56;100091.18;180829;1262;58338;-80
2023/10/07 12:41:44;;;;;;;3.30;2.10;;;;;;;20.10;90.31;100103.25;180291;1264;45476;-80
2023/10/07 12:45:47;;;;;;;3.70;2.10;;;;;;;20.03;90.63;100094.38;180887;1263;44066;-80
2023/10/07 12:49:53;;;;;;;5.00;2.00;;;;;;;20.13;90.24;100092.77;179860;1262;46119;-81
2023/10/07 12:53:59;;;;;;;2.40;1.90;;;;;;;20.15;90.09;100086.42;180583;1262;43751;-80
2023/10/07 13:02:37;;;;;;;2.80;1.70;;;;;;;20.43;90.32;100083.96;180002;1264;45806;-80
2023/10/07 13:06:44;;;;;;;5.00;2.40;;;;;;;20.48;89.28;100078.35;180441;1264;44776;-80
2023/10/07 13:10:47;;;;;;;4.30;3.40;;;;;;;20.59;89.27;100078.55;180065;1262;45935;-79
2023/10/07 13:14:51;;;;;;;3.90;2.00;;;;;;;20.67;88.66;100078.06;179879;1262;44042;-79
2023/10/07 13:18:54;;;;;;;4.10;1.80;;;;;;;20.68;88.23;100067.88;180191;1262;57932;-78
2023/10/07 13:22:58;;;;;;;2.90;2.10;;;;;;;20.72;87.69;100069.61;180556;1262;44427;-78
2023/10/07 13:27:04;;;;;;;3.10;2.50;;;;;;;20.83;87.13;100060.73;180324;1262;43832;-78
2023/10/07 13:31:09;;;;;;;6.60;2.40;;;;;;;20.93;86.73;100051.17;179355;1262;45999;-79
2023/10/07 13:35:18;;;;;;;2.90;2.20;;;;;;;21.02;86.63;100051.06;180145;1262;44634;-78
2023/10/07 13:39:24;;;;;;;5.80;2.20;;;;;;;21.05;86.93;100041.50;180017;1262;57932;-78
2023/10/07 13:43:29;;;;;;;6.30;2.90;;;;;;;21.08;86.26;100037.77;179932;1262;46030;-79
2023/10/07 13:47:32;;;;;;;4.30;1.80;;;;;;;21.05;86.23;100040.26;180841;1261;44359;-79
2023/10/07 13:51:40;;;;;;;11.80;3.80;;;;;;;20.89;86.28;100029.65;180752;1262;44192;-79
2023/10/07 13:59:46;;;;;;;2.80;1.90;;;;;;;20.86;87.72;100032.26;179555;1263;59928;-78
2023/10/07 14:03:50;;;;;;;2.00;1.70;;;;;;;20.91;88.47;100038.56;179645;1262;45173;-78
2023/10/07 14:07:53;;;;;;;6.40;2.60;;;;;;;20.89;89.75;100040.85;180467;1261;44244;-79
2023/10/07 14:11:56;;;;;;;9.60;3.30;;;;;;;20.83;90.93;100025.63;180812;1262;44044;-79
2023/10/07 14:16:00;;;;;;;4.20;2.40;;;;;;;20.72;92.28;100022.84;180160;1261;45205;-78
2023/10/07 14:20:21;;;;;;;2.50;1.50;;;;;;;20.58;94.13;100018.60;180090;1261;58062;-79
2023/10/07 14:24:28;;;;;;;5.10;2.40;;;;;;;20.54;95.17;100026.89;180106;1261;46131;-79
2023/10/07 14:28:32;;;;;;;4.20;2.20;;;;;;;20.41;96.42;100024.89;180722;1266;43605;-80
2023/10/07 14:32:38;;;;;;;3.60;1.80;;;;;;;20.33;97.71;100021.27;180221;1262;46898;-80
2023/10/07 14:36:42;;;;;;;2.90;1.80;;;;;;;20.22;99.28;100019.14;180160;1260;44040;-79
2023/10/07 14:40:49;;;;;;;8.20;2.00;;;;;;;20.18;99.96;100036.02;180038;1262;58303;-79
2023/10/07 14:44:55;;;;;;;5.30;2.40;;;;;;;20.08;100.00;100043.09;180444;1262;44467;-80
2023/10/07 14:48:58;;;;;;;4.30;2.00;;;;;;;19.95;100.00;100044.79;180740;1262;43203;-80
2023/10/07 14:53:04;;;;;;;4.00;2.10;;;;;;;19.86;100.00;100043.90;180575;1261;43416;-80
2023/10/07 14:57:18;;;;;;;4.40;2.40;;;;;;;19.73;100.00;100041.33;179867;1261;44100;-79
2023/10/07 15:01:22;;;;;;;6.10;3.10;;;;;;;19.69;100.00;100049.04;179918;1261;58132;-79
2023/10/07 15:05:27;;;;;;;5.70;2.20;;;;;;;19.63;100.00;100049.30;179734;1262;46006;-79
2023/10/07 15:09:30;;;;;;;3.00;2.40;;;;;;;19.60;100.00;100051.97;180005;1261;44389;-79
2023/10/07 15:13:35;;;;;;;3.90;2.10;;;;;;;19.48;100.00;100053.27;180380;1262;43767;-79
2023/10/07 15:17:44;;;;;;;4.20;2.50;;;;;;;19.34;100.00;100056.55;180728;1262;43852;-80
2023/10/07 15:21:51;;;;;;;2.60;2.20;;;;;;;19.20;100.00;100061.84;180288;1261;58847;-79
2023/10/07 15:25:59;;;;;;;3.20;2.10;;;;;;;19.02;100.00;100056.64;179372;1262;44109;-79
2023/10/07 15:30:03;;;;;;;5.10;3.50;;;;;;;18.82;100.00;100063.34;179086;1261;46188;-79
2023/10/07 15:34:08;;;;;;;4.80;2.60;;;;;;;18.64;100.00;100065.29;179315;1262;45935;-79
2023/10/07 15:38:12;;;;;;;4.00;2.40;;;;;;;18.54;100.00;100075.46;179154;1261;43821;-79
2023/10/07 15:42:17;;;;;;;5.00;2.80;;;;;;;18.44;100.00;100077.50;180262;1262;58512;-79
2023/10/07 15:46:21;;;;;;;8.60;2.00;;;;;;;18.35;100.00;100080.71;179745;1261;45068;-79
2023/10/07 15:50:29;;;;;;;5.70;2.80;;;;;;;18.29;100.00;100081.27;178045;1262;46063;-79
2023/10/07 15:54:32;;;;;;;6.90;3.40;;;;;;;18.29;100.00;100079.80;179074;1261;46110;-79
2023/10/07 15:58:41;;;;;;;5.30;2.90;;;;;;;18.30;100.00;100072.34;178080;1264;45987;-79
2023/10/07 16:02:44;;;;;;;5.50;3.90;;;;;;;18.30;100.00;100068.58;179022;1262;59524;-79
2023/10/07 16:06:48;;;;;;;7.10;3.30;;;;;;;18.28;100.00;100068.13;179655;1262;44763;-79
2023/10/07 16:10:52;;;;;;;2.90;2.10;;;;;;;18.30;100.00;100067.40;178847;1262;44586;-79
2023/10/07 16:14:57;;;;;;;5.60;3.50;;;;;;;18.33;100.00;100061.75;179768;1262;44230;-79
2023/10/07 16:19:01;;;;;;;7.40;2.70;;;;;;;18.37;100.00;100052.90;179875;1262;44780;-80
2023/10/07 16:23:04;;;;;;;7.10;3.50;;;;;;;18.38;100.00;100052.73;179388;1261;59018;-79
2023/10/07 16:27:08;;;;;;;8.10;4.10;;;;;;;18.41;100.00;100049.56;179542;1262;46058;-79
2023/10/07 16:31:14;;;;;;;4.40;2.90;;;;;;;18.41;100.00;100048.23;179773;1261;44430;-79
2023/10/07 16:35:18;;;;;;;4.20;2.80;;;;;;;18.43;100.00;100050.59;179681;1261;44395;-79
2023/10/07 16:39:21;;;;;;;6.40;3.70;;;;;;;18.52;100.00;100053.13;180120;1261;43970;-79
2023/10/07 16:43:24;;;;;;;5.10;3.70;;;;;;;18.55;100.00;100049.69;180375;1262;57821;-79
2023/10/07 16:47:27;;;;;;;5.50;3.30;;;;;;;18.57;100.00;100041.52;178202;1261;46142;-79
2023/10/07 16:51:31;;;;;;;9.80;4.30;;;;;;;18.59;100.00;100034.67;178219;1262;46117;-79
2023/10/07 16:55:34;;;;;;;6.60;2.80;;;;;;;18.57;100.00;100032.03;178690;1261;46140;-79
2023/10/07 16:59:41;;;;;;;3.90;3.20;;;;;;;18.60;100.00;100029.91;179437;1262;46004;-79
2023/10/07 17:03:44;;;;;;;7.30;3.70;;;;;;;18.63;100.00;100030.21;179531;1262;58036;-80
2023/10/07 17:07:48;;;;;;;4.90;2.90;;;;;;;18.65;100.00;100029.61;179068;1261;46095;-79
2023/10/07 17:11:52;;;;;;;4.20;3.20;;;;;;;18.69;100.00;100032.39;179590;1262;46001;-80
2023/10/07 17:15:58;;;;;;;9.50;3.40;;;;;;;18.74;100.00;100034.55;179164;1261;43980;-79
2023/10/07 17:20:06;;;;;;;3.80;3.30;;;;;;;18.74;100.00;100036.13;178941;1261;46003;-79
2023/10/07 17:24:10;;;;;;;5.30;4.20;;;;;;;18.78;100.00;100030.48;179577;1261;57950;-78
2023/10/07 17:28:15;;;;;;;5.80;3.50;;;;;;;18.71;100.00;100027.09;178775;1262;45980;-79
2023/10/07 17:32:19;;;;;;;5.90;3.50;;;;;;;18.75;100.00;100020.55;179864;1261;45950;-79
2023/10/07 17:36:23;;;;;;;7.70;3.10;;;;;;;18.83;100.00;100022.94;178124;1262;46207;-78
2023/10/07 17:40:26;;;;;;;12.40;4.80;;;;;;;18.89;100.00;100028.08;179316;1262;43809;-79
2023/10/07 17:44:29;;;;;;;4.90;3.00;;;;;;;18.93;100.00;100019.05;179715;1261;59229;-79
2023/10/07 17:48:33;;;;;;;6.50;3.10;;;;;;;18.99;100.00;100012.64;178729;1261;45979;-79
2023/10/07 17:52:37;;;;;;;3.20;1.90;;;;;;;19.08;100.00;100017.16;179621;1261;46122;-79
2023/10/07 17:56:41;;;;;;;4.10;2.00;;;;;;;19.04;100.00;100025.75;178573;1266;46140;-79
2023/10/07 18:00:48;;;;;;;5.70;3.10;;;;;;;19.07;100.00;100017.65;178914;1262;46028;-79
2023/10/07 18:04:52;;;;;;;9.10;4.10;;;;;;;19.05;100.00;100013.89;179115;1262;58113;-79
2023/10/07 18:08:55;;;;;;;6.20;3.50;;;;;;;19.10;100.00;100011.50;179937;1261;45905;-79
2023/10/07 18:13:05;;;;;;;5.70;3.10;;;;;;;19.09;100.00;100009.80;178886;1262;46131;-79
2023/10/07 18:17:10;;;;;;;6.50;3.10;;;;;;;19.08;100.00;100006.04;179611;1262;45306;-79
2023/10/07 18:21:14;;;;;;;7.20;2.80;;;;;;;19.14;100.00;100002.71;178983;1261;46033;-78
2023/10/07 18:25:20;;;;;;;6.00;3.60;;;;;;;19.21;100.00;100000.27;178897;1266;58199;-78
2023/10/07 18:29:28;;;;;;;7.20;3.60;;;;;;;19.16;100.00;99998.75;178542;1262;46100;-79
2023/10/07 18:33:31;;;;;;;5.80;2.80;;;;;;;19.09;100.00;99997.10;178583;1261;46088;-79
2023/10/07 18:37:35;;;;;;;6.40;3.90;;;;;;;19.14;100.00;99998.81;179330;1262;44673;-79
2023/10/07 18:41:43;;;;;;;4.20;3.30;;;;;;;19.09;100.00;99994.66;179819;1261;44294;-79
2023/10/07 18:45:51;;;;;;;4.50;3.10;;;;;;;19.13;100.00;99986.86;178740;1261;58099;-79
2023/10/07 18:49:54;;;;;;;5.00;2.80;;;;;;;19.20;100.00;99982.45;178855;1261;46097;-79
2023/10/07 18:53:58;;;;;;;8.40;3.40;;;;;;;19.29;100.00;99989.63;178870;1262;44838;-79
2023/10/07 18:58:03;;;;;;;8.60;2.90;;;;;;;19.18;100.00;99989.66;179704;1262;46230;-79
2023/10/07 19:02:12;;;;;;;4.90;3.00;;;;;;;19.17;100.00;99987.77;178779;1262;46222;-78
2023/10/07 19:06:16;;;;;;;8.00;3.20;;;;;;;19.02;100.00;99977.19;178997;1262;59623;-79
2023/10/07 19:10:21;;;;;;;6.70;2.40;;;;;;;18.96;100.00;99969.67;178055;1261;46108;-80
2023/10/07 19:14:25;;;;;;;3.00;2.50;;;;;;;18.95;100.00;99974.32;178161;1261;46163;-79
2023/10/07 19:18:29;;;;;;;5.00;2.50;;;;;;;18.94;100.00;99977.42;179684;1262;45976;-79
2023/10/07 19:22:40;;;;;;;4.30;2.80;;;;;;;18.83;100.00;99984.92;178387;1262;44415;-79